Аэропорт: Львов имени Даниила Галицкого. Львов

ICAO: UKLL

METAR:
2020-08-09 23:00:00
UKLL 092300Z 00000MPS CAVOK 16/15 Q1018 R31/CLRD// NOSIG
METAR:
2020-08-09 17:04:00
TAF UKLL 091704Z 0918/1018 36004MPS 9999 BKN025 TX27/1012Z TN18/1003Z TEMPO 0918/0922 VRB07G13MPS 2100 -TSRAGR BKN007 BKN020CB BECMG 0922/0923 VRB01MPS 3000 BR BKN007 TEMPO 0923/1006 0400 -SHRA FG BKN002 BKN020CB BECMG 1006/1007 07003MPS 9999 NSW BKN025 SCT030CB